TimeEST,TemperatureF,Dew PointF,Humidity,Sea Level PressureIn,VisibilityMPH,Wind Direction,Wind SpeedMPH,Gust SpeedMPH,PrecipitationIn,Events,Conditions,WindDirDegrees,DateUTC
12:53 AM,35.1,14.0,42,30.30,10.0,Calm,Calm,-,N/A,,Clear,0,2012-12-31 05:53:00
1:53 AM,43.0,15.1,32,30.31,10.0,Calm,Calm,-,N/A,,Clear,0,2012-12-31 06:53:00
2:53 AM,48.0,16.0,28,30.30,10.0,South,3.5,-,N/A,,Clear,180,2012-12-31 07:53:00
3:53 AM,37.9,14.0,38,30.30,10.0,Calm,Calm,-,N/A,,Clear,0,2012-12-31 08:53:00
4:53 AM,39.9,15.1,36,30.29,10.0,South,4.6,-,N/A,,Clear,180,2012-12-31 09:53:00
5:53 AM,39.0,17.1,41,30.27,10.0,SSE,4.6,-,N/A,,Clear,160,2012-12-31 10:53:00
7:53 AM,36.0,18.0,48,30.26,10.0,Calm,Calm,-,N/A,,Clear,0,2012-12-31 12:53:00
8:53 AM,51.1,19.0,28,30.25,10.0,South,4.6,-,N/A,,Clear,190,2012-12-31 13:53:00
9:53 AM,52.0,18.0,26,30.23,10.0,SSW,3.5,-,N/A,,Clear,210,2012-12-31 14:53:00
10:53 AM,57.9,19.0,22,30.21,10.0,SSW,6.9,-,N/A,,Clear,200,2012-12-31 15:53:00
11:53 AM,41.0,19.9,43,30.18,10.0,South,6.9,-,N/A,,Clear,170,2012-12-31 16:53:00
12:53 PM,39.0,21.0,49,30.15,10.0,South,8.1,-,N/A,,Overcast,180,2012-12-31 17:53:00
1:53 PM,39.9,21.0,47,30.10,10.0,South,8.1,-,N/A,,Overcast,180,2012-12-31 18:53:00
2:53 PM,41.0,19.0,41,30.10,10.0,South,10.4,-,N/A,,Scattered Clouds,180,2012-12-31 19:53:00
3:53 PM,41.0,19.9,43,30.12,10.0,SSW,10.4,-,N/A,,Overcast,210,2012-12-31 20:53:00
4:53 PM,41.0,28.4,61,30.09,10.0,South,4.6,-,N/A,,Overcast,180,2012-12-31 21:53:00
5:53 PM,39.2,26.6,61,30.09,10.0,South,6.9,-,N/A,,Overcast,180,2012-12-31 22:53:00
6:53 PM,37.4,28.4,70,30.07,10.0,South,9.2,-,N/A,,Mostly Cloudy,180,2012-12-31 23:53:00
7:53 PM,39.2,28.4,65,30.08,10.0,SSW,8.1,-,N/A,,Clear,210,2013-01-01 00:53:00
8:53 PM,41.0,23.0,49,30.04,10.0,SSW,8.1,-,N/A,,Clear,200,2013-01-01 01:53:00
9:53 PM,41.0,23.0,49,30.03,10.0,SSW,6.9,-,N/A,,Clear,200,2013-01-01 02:53:00
10:53 PM,-9999,-9999,N/A,30.02,10.0,SW,5.8,23.0,N/A,,Clear,230,2013-01-01 03:53:00
11:53 PM,-9999,-9999,N/A,30.01,10.0,SSW,11.5,20.7,N/A,,Clear,200,2013-01-01 04:53:00